| time (UTC) | temp F | wind direction | speed knots | gust knots | rain 1hr in | rain 24hr in | rain mn in | humidity % | barometer mb |
| 20260503194803 | 55 | 185 | 2.6 | 2.6 | 0.00 | 0.00 | 0.00 | 53 | 1019.0 |
| 20260503193802 | 59 | 190 | 2.6 | 2.6 | 0.00 | 0.00 | 0.00 | 50 | 1019.0 |
| 20260503192802 | 59 | 190 | 2.6 | 2.6 | 0.00 | 0.00 | 0.00 | 50 | 1019.0 |
| 20260503191801 | 59 | 190 | 2.6 | 2.6 | 0.00 | 0.00 | 0.00 | 50 | 1019.0 |
| 20260503190801 | 59 | 190 | 2.6 | 2.6 | 0.00 | 0.00 | 0.00 | 50 | 1019.0 |
| 20260503185800 | 59 | 190 | 2.6 | 2.6 | 0.00 | 0.00 | 0.00 | 50 | 1019.0 |
| 20260503184800 | 59 | 190 | 2.6 | 2.6 | 0.00 | 0.00 | 0.00 | 50 | 1019.0 |
| 20260503183759 | 59 | 190 | 2.6 | 2.6 | 0.00 | 0.00 | 0.00 | 50 | 1019.0 |
| 20260503182759 | 62 | 201 | 2.6 | 2.6 | 0.00 | 0.00 | 0.00 | 45 | 1019.0 |
| 20260503181758 | 63 | 201 | 2.6 | 2.6 | 0.00 | 0.00 | 0.00 | 44 | 1019.0 |
| 20260503175757 | 64 | 201 | 2.6 | 2.6 | 0.00 | 0.00 | 0.00 | 45 | 1019.0 |
| 20260503174756 | 64 | 201 | 2.6 | 2.6 | 0.00 | 0.00 | 0.00 | 45 | 1019.0 |
| 20260503173756 | 64 | 201 | 2.6 | 2.6 | 0.00 | 0.00 | 0.00 | 45 | 1019.0 |
| 20260503172756 | 67 | 176 | 2.6 | 2.6 | 0.00 | 0.00 | 0.00 | 39 | 1019.0 |
| 20260503171755 | 68 | 176 | 2.6 | 2.6 | 0.00 | 0.00 | 0.00 | 41 | 1019.0 |
| 20260503170755 | 68 | 176 | 2.6 | 2.6 | 0.00 | 0.00 | 0.00 | 41 | 1019.0 |
| 20260503150748 | 67 | 153 | 4.3 | 4.3 | 0.00 | 0.00 | 0.00 | 38 | 1019.0 |
| 20260503130740 | 67 | 153 | 4.3 | 4.3 | 0.00 | 0.00 | 0.00 | 38 | 1020.0 |
| 20260503110734 | 67 | 153 | 4.3 | 4.3 | 0.00 | 0.00 | 0.00 | 38 | 1020.0 |
| 20260503080725 | 59 | 173 | 6.1 | 6.1 | 0.00 | 0.00 | 0.00 | 54 | 1022.0 |
| 20260503072723 | 50 | 174 | 6.1 | 7.0 | 0.00 | 0.00 | 0.00 | 65 | 1022.0 |
| 20260503071722 | 50 | 174 | 6.1 | 7.0 | 0.00 | 0.00 | 0.00 | 65 | 1022.0 |
| 20260503070722 | 50 | 174 | 6.1 | 7.0 | 0.00 | 0.00 | 0.00 | 65 | 1022.0 |
| 20260503054718 | 50 | 174 | 6.1 | 7.8 | 0.00 | 0.00 | 0.00 | 65 | 1022.0 |
| 20260503053717 | 45 | 123 | 4.3 | 4.3 | 0.00 | 0.00 | 0.00 | 66 | 1022.0 |
| 20260503052711 | 45 | 123 | 4.3 | 4.3 | 0.00 | 0.00 | 0.00 | 66 | 1022.0 |
| 20260503051711 | 45 | 123 | 4.3 | 4.3 | 0.00 | 0.00 | 0.00 | 66 | 1022.0 |
| 20260503050710 | 45 | 123 | 4.3 | 4.3 | 0.00 | 0.00 | 0.00 | 66 | 1022.0 |
| 20260503045710 | 45 | 123 | 4.3 | 4.3 | 0.00 | 0.00 | 0.00 | 66 | 1022.0 |
| 20260503044709 | 45 | 123 | 4.3 | 4.3 | 0.00 | 0.00 | 0.00 | 66 | 1022.0 |
| 20260503043709 | 45 | 123 | 4.3 | 4.3 | 0.00 | 0.00 | 0.00 | 66 | 1022.0 |
| 20260503042708 | 45 | 123 | 4.3 | 4.3 | 0.00 | 0.00 | 0.00 | 66 | 1021.0 |
| 20260503041706 | 45 | 123 | 4.3 | 4.3 | 0.00 | 0.00 | 0.00 | 66 | 1021.0 |
| 20260503040706 | 45 | 123 | 4.3 | 4.3 | 0.00 | 0.00 | 0.00 | 66 | 1021.0 |
| 20260503035705 | 45 | 123 | 4.3 | 4.3 | 0.00 | 0.00 | 0.00 | 66 | 1021.0 |
| 20260503034705 | 45 | 123 | 4.3 | 4.3 | 0.00 | 0.00 | 0.00 | 66 | 1021.0 |
| 20260503033704 | 45 | 123 | 4.3 | 4.3 | 0.00 | 0.00 | 0.00 | 66 | 1021.0 |
| 20260503032703 | 45 | 123 | 4.3 | 4.3 | 0.00 | 0.00 | 0.00 | 66 | 1021.0 |
| 20260503031703 | 45 | 123 | 4.3 | 4.3 | 0.00 | 0.00 | 0.00 | 66 | 1021.0 |
| 20260503030702 | 45 | 123 | 4.3 | 4.3 | 0.00 | 0.00 | 0.00 | 66 | 1021.0 |
| 20260503025702 | 45 | 123 | 4.3 | 4.3 | 0.00 | 0.00 | 0.00 | 66 | 1021.0 |
| 20260503024702 | 45 | 123 | 4.3 | 4.3 | 0.00 | 0.00 | 0.00 | 66 | 1021.0 |
| 20260503023701 | 45 | 123 | 4.3 | 4.3 | 0.00 | 0.00 | 0.00 | 66 | 1021.0 |
| 20260503022700 | 45 | 123 | 4.3 | 4.3 | 0.00 | 0.00 | 0.00 | 66 | 1021.0 |
| 20260503021700 | 45 | 123 | 4.3 | 4.3 | 0.00 | 0.00 | 0.00 | 66 | 1021.0 |
| 20260503020659 | 45 | 123 | 4.3 | 4.3 | 0.00 | 0.00 | 0.00 | 66 | 1021.0 |
| 20260503015659 | 45 | 123 | 4.3 | 4.3 | 0.00 | 0.00 | 0.00 | 66 | 1021.0 |
| 20260503014658 | 45 | 123 | 4.3 | 4.3 | 0.00 | 0.00 | 0.00 | 66 | 1021.0 |
| 20260503013658 | 52 | 92 | 3.5 | 3.5 | 0.00 | 0.00 | 0.00 | 56 | 1021.0 |
| 20260503012657 | 52 | 92 | 3.5 | 3.5 | 0.00 | 0.00 | 0.00 | 56 | 1021.0 |
| 20260503011657 | 52 | 92 | 3.5 | 3.5 | 0.00 | 0.00 | 0.00 | 56 | 1021.0 |
| 20260503010656 | 52 | 92 | 3.5 | 3.5 | 0.00 | 0.00 | 0.00 | 56 | 1021.0 |
| 20260503005656 | 52 | 92 | 3.5 | 3.5 | 0.00 | 0.00 | 0.00 | 56 | 1021.0 |
| 20260503004655 | 52 | 92 | 3.5 | 3.5 | 0.00 | 0.00 | 0.00 | 56 | 1021.0 |
| 20260503003655 | 52 | 92 | 3.5 | 3.5 | 0.00 | 0.00 | 0.00 | 56 | 1021.0 |
| 20260503002654 | 52 | 92 | 3.5 | 3.5 | 0.00 | 0.00 | 0.00 | 56 | 1021.0 |
| 20260503001654 | 52 | 92 | 3.5 | 3.5 | 0.00 | 0.00 | 0.00 | 56 | 1021.0 |
| 20260503000653 | 52 | 92 | 3.5 | 3.5 | 0.00 | 0.00 | 0.00 | 56 | 1021.0 |
| 20260502235653 | 52 | 92 | 3.5 | 3.5 | 0.00 | 0.00 | 0.00 | 56 | 1021.0 |
| 20260502234652 | 52 | 92 | 3.5 | 3.5 | 0.00 | 0.00 | 0.00 | 56 | 1021.0 |
| 20260502233652 | 52 | 92 | 3.5 | 3.5 | 0.00 | 0.00 | 0.00 | 56 | 1021.0 |
| 20260502232651 | 52 | 92 | 3.5 | 3.5 | 0.00 | 0.00 | 0.00 | 56 | 1021.0 |
| 20260502231651 | 52 | 92 | 3.5 | 3.5 | 0.00 | 0.00 | 0.00 | 56 | 1021.0 |
| 20260502230650 | 52 | 92 | 3.5 | 3.5 | 0.00 | 0.00 | 0.00 | 56 | 1021.0 |
| 20260502225650 | 52 | 92 | 3.5 | 3.5 | 0.00 | 0.00 | 0.00 | 56 | 1021.0 |
| 20260502224649 | 52 | 92 | 3.5 | 3.5 | 0.00 | 0.00 | 0.00 | 56 | 1021.0 |
| 20260502223649 | 52 | 92 | 3.5 | 3.5 | 0.00 | 0.00 | 0.00 | 56 | 1021.0 |
| 20260502222648 | 52 | 92 | 3.5 | 3.5 | 0.00 | 0.00 | 0.00 | 56 | 1021.0 |
| 20260502221648 | 52 | 92 | 3.5 | 3.5 | 0.00 | 0.00 | 0.00 | 56 | 1021.0 |
| 20260502220647 | 52 | 92 | 3.5 | 3.5 | 0.00 | 0.00 | 0.00 | 56 | 1021.0 |
| 20260502215646 | 52 | 92 | 3.5 | 3.5 | 0.00 | 0.00 | 0.00 | 56 | 1021.0 |
| 20260502214645 | 52 | 92 | 3.5 | 3.5 | 0.00 | 0.00 | 0.00 | 56 | 1021.0 |
| 20260502213645 | 52 | 92 | 3.5 | 3.5 | 0.00 | 0.00 | 0.00 | 56 | 1021.0 |
| 20260502212645 | 52 | 92 | 3.5 | 3.5 | 0.00 | 0.00 | 0.00 | 56 | 1021.0 |
| 20260502211644 | 52 | 92 | 3.5 | 3.5 | 0.00 | 0.00 | 0.00 | 56 | 1021.0 |
| 20260502210644 | 52 | 92 | 3.5 | 3.5 | 0.00 | 0.00 | 0.00 | 56 | 1021.0 |
| 20260502205643 | 52 | 92 | 3.5 | 3.5 | 0.00 | 0.00 | 0.00 | 56 | 1021.0 |
| 20260502204642 | 52 | 92 | 3.5 | 3.5 | 0.00 | 0.00 | 0.00 | 56 | 1021.0 |
| 20260502203642 | 58 | 100 | 3.5 | 3.5 | 0.00 | 0.00 | 0.00 | 54 | 1021.0 |
| 20260502202641 | 58 | 100 | 3.5 | 3.5 | 0.00 | 0.00 | 0.00 | 54 | 1021.0 |
| 20260502201641 | 58 | 100 | 3.5 | 3.5 | 0.00 | 0.00 | 0.00 | 54 | 1021.0 |
| 20260502200640 | 58 | 100 | 3.5 | 3.5 | 0.00 | 0.00 | 0.00 | 54 | 1021.0 |
| 20260502195640 | 58 | 100 | 3.5 | 3.5 | 0.00 | 0.00 | 0.00 | 54 | 1021.0 |